sensor_id;sensor_type;location;lat;lon;timestamp;P1;durP1;ratioP1;P2;durP2;ratioP2
10063;SDS011;5071;52.360;13.134;2023-06-26T00:00:50;0.60;;;0.60;;
10063;SDS011;5071;52.360;13.134;2023-06-26T00:05:52;0.83;;;0.80;;
10063;SDS011;5071;52.360;13.134;2023-06-26T00:10:53;0.60;;;0.60;;
10063;SDS011;5071;52.360;13.134;2023-06-26T00:15:57;1.07;;;0.80;;
10063;SDS011;5071;52.360;13.134;2023-06-26T00:21:00;1.60;;;0.80;;
10063;SDS011;5071;52.360;13.134;2023-06-26T00:26:02;1.43;;;0.80;;
10063;SDS011;5071;52.360;13.134;2023-06-26T00:31:05;0.70;;;0.70;;
10063;SDS011;5071;52.360;13.134;2023-06-26T00:36:07;0.70;;;0.70;;
10063;SDS011;5071;52.360;13.134;2023-06-26T00:41:10;0.60;;;0.60;;
10063;SDS011;5071;52.360;13.134;2023-06-26T00:46:13;1.20;;;1.10;;
10063;SDS011;5071;52.360;13.134;2023-06-26T00:51:15;0.40;;;0.40;;
10063;SDS011;5071;52.360;13.134;2023-06-26T00:56:17;0.20;;;0.20;;
10063;SDS011;5071;52.360;13.134;2023-06-26T01:01:23;2.13;;;1.17;;
10063;SDS011;5071;52.360;13.134;2023-06-26T01:06:24;0.50;;;0.50;;
10063;SDS011;5071;52.360;13.134;2023-06-26T01:11:29;1.07;;;1.03;;
10063;SDS011;5071;52.360;13.134;2023-06-26T01:16:32;0.40;;;0.40;;
10063;SDS011;5071;52.360;13.134;2023-06-26T01:21:36;0.57;;;0.40;;
10063;SDS011;5071;52.360;13.134;2023-06-26T01:26:45;0.67;;;0.67;;
10063;SDS011;5071;52.360;13.134;2023-06-26T01:31:47;0.53;;;0.53;;
10063;SDS011;5071;52.360;13.134;2023-06-26T01:36:51;0.70;;;0.70;;
10063;SDS011;5071;52.360;13.134;2023-06-26T01:41:54;1.10;;;1.00;;
10063;SDS011;5071;52.360;13.134;2023-06-26T01:47:00;1.57;;;0.80;;
10063;SDS011;5071;52.360;13.134;2023-06-26T01:52:06;0.47;;;0.47;;
10063;SDS011;5071;52.360;13.134;2023-06-26T01:57:12;1.10;;;0.73;;
10063;SDS011;5071;52.360;13.134;2023-06-26T02:02:14;1.03;;;0.83;;
10063;SDS011;5071;52.360;13.134;2023-06-26T02:07:17;0.30;;;0.30;;
10063;SDS011;5071;52.360;13.134;2023-06-26T02:12:20;0.50;;;0.50;;
10063;SDS011;5071;52.360;13.134;2023-06-26T02:17:22;1.13;;;0.60;;
10063;SDS011;5071;52.360;13.134;2023-06-26T02:22:24;0.90;;;0.90;;
10063;SDS011;5071;52.360;13.134;2023-06-26T02:27:27;0.70;;;0.70;;
10063;SDS011;5071;52.360;13.134;2023-06-26T02:32:29;1.43;;;0.80;;
10063;SDS011;5071;52.360;13.134;2023-06-26T02:37:31;1.43;;;0.57;;
10063;SDS011;5071;52.360;13.134;2023-06-26T02:42:34;0.60;;;0.60;;
10063;SDS011;5071;52.360;13.134;2023-06-26T02:47:36;0.50;;;0.50;;
10063;SDS011;5071;52.360;13.134;2023-06-26T02:52:39;0.93;;;0.90;;
10063;SDS011;5071;52.360;13.134;2023-06-26T02:57:42;0.77;;;0.60;;
10063;SDS011;5071;52.360;13.134;2023-06-26T03:02:44;1.60;;;0.80;;
10063;SDS011;5071;52.360;13.134;2023-06-26T03:07:45;1.20;;;0.63;;
10063;SDS011;5071;52.360;13.134;2023-06-26T03:12:49;0.87;;;0.83;;
10063;SDS011;5071;52.360;13.134;2023-06-26T03:17:51;1.30;;;0.70;;
10063;SDS011;5071;52.360;13.134;2023-06-26T03:22:53;1.13;;;0.87;;
10063;SDS011;5071;52.360;13.134;2023-06-26T03:27:56;2.00;;;1.00;;
10063;SDS011;5071;52.360;13.134;2023-06-26T03:32:57;0.80;;;0.80;;
10063;SDS011;5071;52.360;13.134;2023-06-26T03:38:01;0.50;;;0.50;;
10063;SDS011;5071;52.360;13.134;2023-06-26T03:43:04;1.33;;;0.53;;
10063;SDS011;5071;52.360;13.134;2023-06-26T03:48:06;1.30;;;0.57;;
10063;SDS011;5071;52.360;13.134;2023-06-26T03:53:08;1.13;;;0.97;;
10063;SDS011;5071;52.360;13.134;2023-06-26T03:58:11;0.67;;;0.67;;
10063;SDS011;5071;52.360;13.134;2023-06-26T04:03:13;1.20;;;0.80;;
10063;SDS011;5071;52.360;13.134;2023-06-26T04:08:15;1.53;;;1.43;;
10063;SDS011;5071;52.360;13.134;2023-06-26T04:13:19;1.00;;;0.83;;
10063;SDS011;5071;52.360;13.134;2023-06-26T04:18:21;1.37;;;1.27;;
10063;SDS011;5071;52.360;13.134;2023-06-26T04:23:23;0.53;;;0.53;;
10063;SDS011;5071;52.360;13.134;2023-06-26T04:28:26;1.00;;;0.97;;
10063;SDS011;5071;52.360;13.134;2023-06-26T04:33:28;1.03;;;0.97;;
10063;SDS011;5071;52.360;13.134;2023-06-26T04:38:31;0.93;;;0.90;;
10063;SDS011;5071;52.360;13.134;2023-06-26T04:43:35;1.40;;;1.30;;
10063;SDS011;5071;52.360;13.134;2023-06-26T04:48:37;0.77;;;0.77;;
10063;SDS011;5071;52.360;13.134;2023-06-26T04:53:39;1.45;;;1.35;;
10063;SDS011;5071;52.360;13.134;2023-06-26T04:58:43;1.40;;;1.23;;
10063;SDS011;5071;52.360;13.134;2023-06-26T05:03:45;1.98;;;1.48;;
10063;SDS011;5071;52.360;13.134;2023-06-26T05:08:47;2.22;;;1.65;;
10063;SDS011;5071;52.360;13.134;2023-06-26T05:13:50;2.00;;;1.58;;
10063;SDS011;5071;52.360;13.134;2023-06-26T05:18:52;1.80;;;1.50;;
10063;SDS011;5071;52.360;13.134;2023-06-26T05:23:55;2.60;;;1.85;;
10063;SDS011;5071;52.360;13.134;2023-06-26T05:29:00;1.35;;;1.25;;
10063;SDS011;5071;52.360;13.134;2023-06-26T05:34:02;1.40;;;1.30;;
10063;SDS011;5071;52.360;13.134;2023-06-26T05:39:05;1.33;;;1.23;;
10063;SDS011;5071;52.360;13.134;2023-06-26T05:44:08;1.58;;;1.40;;
10063;SDS011;5071;52.360;13.134;2023-06-26T05:49:10;2.83;;;2.10;;
10063;SDS011;5071;52.360;13.134;2023-06-26T05:54:16;1.58;;;1.48;;
10063;SDS011;5071;52.360;13.134;2023-06-26T05:59:19;1.67;;;1.58;;
10063;SDS011;5071;52.360;13.134;2023-06-26T06:04:22;1.50;;;1.40;;
10063;SDS011;5071;52.360;13.134;2023-06-26T06:09:24;1.20;;;1.10;;
10063;SDS011;5071;52.360;13.134;2023-06-26T06:14:27;1.00;;;1.00;;
10063;SDS011;5071;52.360;13.134;2023-06-26T06:19:29;3.55;;;2.33;;
10063;SDS011;5071;52.360;13.134;2023-06-26T06:24:31;2.13;;;1.75;;
10063;SDS011;5071;52.360;13.134;2023-06-26T06:29:34;1.40;;;1.30;;
10063;SDS011;5071;52.360;13.134;2023-06-26T06:34:36;2.47;;;1.77;;
10063;SDS011;5071;52.360;13.134;2023-06-26T06:39:38;1.73;;;1.45;;
10063;SDS011;5071;52.360;13.134;2023-06-26T06:44:41;1.15;;;1.13;;
10063;SDS011;5071;52.360;13.134;2023-06-26T06:49:43;1.20;;;1.10;;
10063;SDS011;5071;52.360;13.134;2023-06-26T06:54:51;1.73;;;1.63;;
10063;SDS011;5071;52.360;13.134;2023-06-26T06:59:55;1.55;;;1.45;;
10063;SDS011;5071;52.360;13.134;2023-06-26T07:04:57;1.08;;;1.08;;
10063;SDS011;5071;52.360;13.134;2023-06-26T07:09:59;1.52;;;1.42;;
10063;SDS011;5071;52.360;13.134;2023-06-26T07:15:03;3.20;;;2.20;;
10063;SDS011;5071;52.360;13.134;2023-06-26T07:20:07;1.70;;;1.60;;
10063;SDS011;5071;52.360;13.134;2023-06-26T07:25:11;1.15;;;1.15;;
10063;SDS011;5071;52.360;13.134;2023-06-26T07:30:14;1.13;;;1.10;;
10063;SDS011;5071;52.360;13.134;2023-06-26T07:35:16;1.00;;;1.00;;
10063;SDS011;5071;52.360;13.134;2023-06-26T07:40:18;0.90;;;0.90;;
10063;SDS011;5071;52.360;13.134;2023-06-26T07:45:23;1.30;;;1.20;;
10063;SDS011;5071;52.360;13.134;2023-06-26T07:50:27;1.20;;;1.08;;
10063;SDS011;5071;52.360;13.134;2023-06-26T07:55:29;1.30;;;1.20;;
10063;SDS011;5071;52.360;13.134;2023-06-26T08:00:33;1.42;;;1.33;;
10063;SDS011;5071;52.360;13.134;2023-06-26T08:05:36;1.27;;;1.17;;
10063;SDS011;5071;52.360;13.134;2023-06-26T08:10:38;0.85;;;0.85;;
10063;SDS011;5071;52.360;13.134;2023-06-26T08:15:42;1.10;;;1.02;;
10063;SDS011;5071;52.360;13.134;2023-06-26T08:20:45;0.80;;;0.80;;
10063;SDS011;5071;52.360;13.134;2023-06-26T08:25:47;1.83;;;1.25;;
10063;SDS011;5071;52.360;13.134;2023-06-26T08:30:51;1.00;;;0.90;;
10063;SDS011;5071;52.360;13.134;2023-06-26T08:35:53;2.42;;;1.00;;
10063;SDS011;5071;52.360;13.134;2023-06-26T08:40:54;0.88;;;0.88;;
10063;SDS011;5071;52.360;13.134;2023-06-26T08:45:58;2.05;;;1.90;;
10063;SDS011;5071;52.360;13.134;2023-06-26T08:51:01;1.23;;;1.17;;
10063;SDS011;5071;52.360;13.134;2023-06-26T08:56:06;1.13;;;0.90;;
10063;SDS011;5071;52.360;13.134;2023-06-26T09:01:11;0.80;;;0.80;;
10063;SDS011;5071;52.360;13.134;2023-06-26T09:06:14;0.63;;;0.63;;
10063;SDS011;5071;52.360;13.134;2023-06-26T09:11:17;0.70;;;0.70;;
10063;SDS011;5071;52.360;13.134;2023-06-26T09:16:25;0.68;;;0.68;;
10063;SDS011;5071;52.360;13.134;2023-06-26T09:21:27;1.73;;;1.08;;
10063;SDS011;5071;52.360;13.134;2023-06-26T09:26:29;2.13;;;1.17;;
10063;SDS011;5071;52.360;13.134;2023-06-26T09:31:33;0.77;;;0.77;;
10063;SDS011;5071;52.360;13.134;2023-06-26T09:36:43;1.67;;;0.80;;
10063;SDS011;5071;52.360;13.134;2023-06-26T09:41:45;1.55;;;0.93;;
10063;SDS011;5071;52.360;13.134;2023-06-26T09:46:49;0.70;;;0.70;;
10063;SDS011;5071;52.360;13.134;2023-06-26T09:51:51;0.80;;;0.80;;
10063;SDS011;5071;52.360;13.134;2023-06-26T09:56:55;1.08;;;0.90;;
10063;SDS011;5071;52.360;13.134;2023-06-26T10:01:59;0.80;;;0.80;;
10063;SDS011;5071;52.360;13.134;2023-06-26T10:07:02;0.70;;;0.68;;
10063;SDS011;5071;52.360;13.134;2023-06-26T10:12:09;1.85;;;1.08;;
10063;SDS011;5071;52.360;13.134;2023-06-26T10:17:16;0.82;;;0.82;;
10063;SDS011;5071;52.360;13.134;2023-06-26T10:22:21;0.80;;;0.80;;
10063;SDS011;5071;52.360;13.134;2023-06-26T10:27:27;0.70;;;0.70;;
10063;SDS011;5071;52.360;13.134;2023-06-26T10:32:36;0.63;;;0.63;;
10063;SDS011;5071;52.360;13.134;2023-06-26T10:37:41;1.50;;;0.70;;
10063;SDS011;5071;52.360;13.134;2023-06-26T10:42:45;0.40;;;0.40;;
10063;SDS011;5071;52.360;13.134;2023-06-26T10:47:48;0.55;;;0.52;;
10063;SDS011;5071;52.360;13.134;2023-06-26T10:53:07;0.73;;;0.70;;
10063;SDS011;5071;52.360;13.134;2023-06-26T10:58:29;0.60;;;0.60;;
10063;SDS011;5071;52.360;13.134;2023-06-26T11:03:34;1.42;;;0.70;;
10063;SDS011;5071;52.360;13.134;2023-06-26T11:08:47;0.90;;;0.90;;
10063;SDS011;5071;52.360;13.134;2023-06-26T11:13:51;1.15;;;1.05;;
10063;SDS011;5071;52.360;13.134;2023-06-26T11:18:54;1.00;;;0.90;;
10063;SDS011;5071;52.360;13.134;2023-06-26T11:24:00;0.63;;;0.63;;
10063;SDS011;5071;52.360;13.134;2023-06-26T11:29:04;0.70;;;0.70;;
10063;SDS011;5071;52.360;13.134;2023-06-26T11:34:08;0.65;;;0.65;;
10063;SDS011;5071;52.360;13.134;2023-06-26T11:39:11;1.23;;;0.73;;
10063;SDS011;5071;52.360;13.134;2023-06-26T11:44:13;0.90;;;0.90;;
10063;SDS011;5071;52.360;13.134;2023-06-26T11:49:17;0.80;;;0.80;;
10063;SDS011;5071;52.360;13.134;2023-06-26T11:54:22;1.13;;;0.95;;
10063;SDS011;5071;52.360;13.134;2023-06-26T11:59:33;0.50;;;0.50;;
10063;SDS011;5071;52.360;13.134;2023-06-26T12:04:38;1.20;;;1.10;;
10063;SDS011;5071;52.360;13.134;2023-06-26T12:09:43;1.10;;;1.00;;
10063;SDS011;5071;52.360;13.134;2023-06-26T12:14:48;0.98;;;0.90;;
10063;SDS011;5071;52.360;13.134;2023-06-26T12:19:51;1.30;;;1.00;;
10063;SDS011;5071;52.360;13.134;2023-06-26T12:24:56;1.08;;;1.08;;
10063;SDS011;5071;52.360;13.134;2023-06-26T12:29:58;1.95;;;1.20;;
10063;SDS011;5071;52.360;13.134;2023-06-26T12:35:02;1.60;;;1.50;;
10063;SDS011;5071;52.360;13.134;2023-06-26T12:40:04;0.70;;;0.70;;
10063;SDS011;5071;52.360;13.134;2023-06-26T12:45:17;1.15;;;1.05;;
10063;SDS011;5071;52.360;13.134;2023-06-26T12:50:23;1.77;;;0.90;;
10063;SDS011;5071;52.360;13.134;2023-06-26T12:55:25;1.10;;;1.00;;
10063;SDS011;5071;52.360;13.134;2023-06-26T13:00:27;0.82;;;0.82;;
10063;SDS011;5071;52.360;13.134;2023-06-26T13:05:30;0.73;;;0.73;;
10063;SDS011;5071;52.360;13.134;2023-06-26T13:10:33;1.05;;;1.00;;
10063;SDS011;5071;52.360;13.134;2023-06-26T13:15:35;1.58;;;1.48;;
10063;SDS011;5071;52.360;13.134;2023-06-26T13:20:39;1.20;;;1.10;;
10063;SDS011;5071;52.360;13.134;2023-06-26T13:25:41;1.73;;;0.82;;
10063;SDS011;5071;52.360;13.134;2023-06-26T13:30:44;0.90;;;0.90;;
10063;SDS011;5071;52.360;13.134;2023-06-26T13:35:47;0.88;;;0.80;;
10063;SDS011;5071;52.360;13.134;2023-06-26T13:40:49;1.45;;;1.17;;
10063;SDS011;5071;52.360;13.134;2023-06-26T13:45:52;1.10;;;0.93;;
10063;SDS011;5071;52.360;13.134;2023-06-26T13:50:55;0.93;;;0.80;;
10063;SDS011;5071;52.360;13.134;2023-06-26T13:55:58;1.17;;;0.80;;
10063;SDS011;5071;52.360;13.134;2023-06-26T14:01:00;1.10;;;1.05;;
10063;SDS011;5071;52.360;13.134;2023-06-26T14:06:03;0.77;;;0.77;;
10063;SDS011;5071;52.360;13.134;2023-06-26T14:11:05;0.43;;;0.43;;
10063;SDS011;5071;52.360;13.134;2023-06-26T14:16:08;0.77;;;0.70;;
10063;SDS011;5071;52.360;13.134;2023-06-26T14:21:11;0.75;;;0.75;;
10063;SDS011;5071;52.360;13.134;2023-06-26T14:26:13;0.88;;;0.65;;
10063;SDS011;5071;52.360;13.134;2023-06-26T14:31:15;0.52;;;0.50;;
10063;SDS011;5071;52.360;13.134;2023-06-26T14:36:19;0.83;;;0.77;;
10063;SDS011;5071;52.360;13.134;2023-06-26T14:41:21;0.40;;;0.33;;
10063;SDS011;5071;52.360;13.134;2023-06-26T14:46:23;0.40;;;0.40;;
10063;SDS011;5071;52.360;13.134;2023-06-26T14:51:27;0.30;;;0.30;;
10063;SDS011;5071;52.360;13.134;2023-06-26T14:56:28;0.17;;;0.17;;
10063;SDS011;5071;52.360;13.134;2023-06-26T15:01:30;0.37;;;0.37;;
10063;SDS011;5071;52.360;13.134;2023-06-26T15:06:34;1.00;;;0.90;;
10063;SDS011;5071;52.360;13.134;2023-06-26T15:11:36;0.60;;;0.60;;
10063;SDS011;5071;52.360;13.134;2023-06-26T15:16:37;0.50;;;0.47;;
10063;SDS011;5071;52.360;13.134;2023-06-26T15:21:41;0.73;;;0.57;;
10063;SDS011;5071;52.360;13.134;2023-06-26T15:26:43;0.60;;;0.43;;
10063;SDS011;5071;52.360;13.134;2023-06-26T15:31:45;0.53;;;0.53;;
10063;SDS011;5071;52.360;13.134;2023-06-26T15:36:49;1.47;;;0.60;;
10063;SDS011;5071;52.360;13.134;2023-06-26T15:41:51;0.40;;;0.30;;
10063;SDS011;5071;52.360;13.134;2023-06-26T15:46:53;0.30;;;0.30;;
10063;SDS011;5071;52.360;13.134;2023-06-26T15:51:56;0.43;;;0.37;;
10063;SDS011;5071;52.360;13.134;2023-06-26T15:56:58;0.68;;;0.68;;
10063;SDS011;5071;52.360;13.134;2023-06-26T16:02:00;0.57;;;0.57;;
10063;SDS011;5071;52.360;13.134;2023-06-26T16:07:03;1.20;;;0.90;;
10063;SDS011;5071;52.360;13.134;2023-06-26T16:12:06;0.60;;;0.60;;
10063;SDS011;5071;52.360;13.134;2023-06-26T16:17:08;0.30;;;0.30;;
10063;SDS011;5071;52.360;13.134;2023-06-26T16:22:11;0.57;;;0.43;;
10063;SDS011;5071;52.360;13.134;2023-06-26T16:27:13;0.77;;;0.60;;
10063;SDS011;5071;52.360;13.134;2023-06-26T16:32:15;0.53;;;0.53;;
10063;SDS011;5071;52.360;13.134;2023-06-26T16:37:19;0.52;;;0.52;;
10063;SDS011;5071;52.360;13.134;2023-06-26T16:42:21;0.23;;;0.20;;
10063;SDS011;5071;52.360;13.134;2023-06-26T16:47:23;0.70;;;0.70;;
10063;SDS011;5071;52.360;13.134;2023-06-26T16:52:27;0.53;;;0.53;;
10063;SDS011;5071;52.360;13.134;2023-06-26T16:57:29;0.52;;;0.52;;
10063;SDS011;5071;52.360;13.134;2023-06-26T17:02:31;0.90;;;0.63;;
10063;SDS011;5071;52.360;13.134;2023-06-26T17:07:35;0.20;;;0.20;;
10063;SDS011;5071;52.360;13.134;2023-06-26T17:12:38;0.50;;;0.50;;
10063;SDS011;5071;52.360;13.134;2023-06-26T17:17:40;0.75;;;0.75;;
10063;SDS011;5071;52.360;13.134;2023-06-26T17:22:44;0.68;;;0.57;;
10063;SDS011;5071;52.360;13.134;2023-06-26T17:27:46;0.40;;;0.40;;
10063;SDS011;5071;52.360;13.134;2023-06-26T17:32:48;1.00;;;1.00;;
10063;SDS011;5071;52.360;13.134;2023-06-26T17:37:51;0.52;;;0.52;;
10063;SDS011;5071;52.360;13.134;2023-06-26T17:42:54;0.40;;;0.40;;
10063;SDS011;5071;52.360;13.134;2023-06-26T17:47:56;0.40;;;0.40;;
10063;SDS011;5071;52.360;13.134;2023-06-26T17:52:59;1.13;;;0.90;;
10063;SDS011;5071;52.360;13.134;2023-06-26T17:58:01;0.73;;;0.47;;
10063;SDS011;5071;52.360;13.134;2023-06-26T18:03:03;0.57;;;0.57;;
10063;SDS011;5071;52.360;13.134;2023-06-26T18:08:06;0.57;;;0.57;;
10063;SDS011;5071;52.360;13.134;2023-06-26T18:13:08;0.60;;;0.57;;
10063;SDS011;5071;52.360;13.134;2023-06-26T18:18:10;0.47;;;0.30;;
10063;SDS011;5071;52.360;13.134;2023-06-26T18:23:14;0.33;;;0.33;;
10063;SDS011;5071;52.360;13.134;2023-06-26T18:28:16;0.30;;;0.30;;
10063;SDS011;5071;52.360;13.134;2023-06-26T18:33:20;0.52;;;0.52;;
10063;SDS011;5071;52.360;13.134;2023-06-26T18:38:24;1.23;;;0.90;;
10063;SDS011;5071;52.360;13.134;2023-06-26T18:43:26;0.57;;;0.50;;
10063;SDS011;5071;52.360;13.134;2023-06-26T18:48:28;1.63;;;0.73;;
10063;SDS011;5071;52.360;13.134;2023-06-26T18:53:32;2.03;;;0.80;;
10063;SDS011;5071;52.360;13.134;2023-06-26T18:58:34;0.40;;;0.40;;
10063;SDS011;5071;52.360;13.134;2023-06-26T19:03:36;0.20;;;0.20;;
10063;SDS011;5071;52.360;13.134;2023-06-26T19:08:40;0.20;;;0.20;;
10063;SDS011;5071;52.360;13.134;2023-06-26T19:13:42;0.30;;;0.30;;
10063;SDS011;5071;52.360;13.134;2023-06-26T19:18:44;0.30;;;0.30;;
10063;SDS011;5071;52.360;13.134;2023-06-26T19:23:48;0.20;;;0.20;;
10063;SDS011;5071;52.360;13.134;2023-06-26T19:28:49;0.30;;;0.30;;
10063;SDS011;5071;52.360;13.134;2023-06-26T19:33:52;0.20;;;0.20;;
10063;SDS011;5071;52.360;13.134;2023-06-26T19:38:55;0.30;;;0.30;;
10063;SDS011;5071;52.360;13.134;2023-06-26T19:43:56;0.57;;;0.47;;
10063;SDS011;5071;52.360;13.134;2023-06-26T19:48:59;0.10;;;0.10;;
10063;SDS011;5071;52.360;13.134;2023-06-26T19:54:02;0.17;;;0.17;;
10063;SDS011;5071;52.360;13.134;2023-06-26T19:59:04;0.53;;;0.20;;
10063;SDS011;5071;52.360;13.134;2023-06-26T20:04:06;0.20;;;0.20;;
10063;SDS011;5071;52.360;13.134;2023-06-26T20:09:09;0.27;;;0.27;;
10063;SDS011;5071;52.360;13.134;2023-06-26T20:14:11;0.20;;;0.20;;
10063;SDS011;5071;52.360;13.134;2023-06-26T20:19:13;0.30;;;0.30;;
10063;SDS011;5071;52.360;13.134;2023-06-26T20:24:16;0.20;;;0.20;;
10063;SDS011;5071;52.360;13.134;2023-06-26T20:29:18;0.40;;;0.40;;
10063;SDS011;5071;52.360;13.134;2023-06-26T20:34:20;0.40;;;0.40;;
10063;SDS011;5071;52.360;13.134;2023-06-26T20:39:23;0.10;;;0.10;;
10063;SDS011;5071;52.360;13.134;2023-06-26T20:44:29;0.10;;;0.10;;
10063;SDS011;5071;52.360;13.134;2023-06-26T20:49:31;0.10;;;0.10;;
10063;SDS011;5071;52.360;13.134;2023-06-26T20:54:35;0.13;;;0.13;;
10063;SDS011;5071;52.360;13.134;2023-06-26T20:59:38;0.13;;;0.13;;
10063;SDS011;5071;52.360;13.134;2023-06-26T21:04:41;0.10;;;0.10;;
10063;SDS011;5071;52.360;13.134;2023-06-26T21:09:44;0.13;;;0.13;;
10063;SDS011;5071;52.360;13.134;2023-06-26T21:14:46;0.23;;;0.23;;
10063;SDS011;5071;52.360;13.134;2023-06-26T21:19:48;0.20;;;0.20;;
10063;SDS011;5071;52.360;13.134;2023-06-26T21:24:51;0.10;;;0.10;;
10063;SDS011;5071;52.360;13.134;2023-06-26T21:29:53;0.10;;;0.10;;
10063;SDS011;5071;52.360;13.134;2023-06-26T21:34:55;0.10;;;0.10;;
10063;SDS011;5071;52.360;13.134;2023-06-26T21:39:58;0.83;;;0.70;;
10063;SDS011;5071;52.360;13.134;2023-06-26T21:45:00;0.20;;;0.20;;
10063;SDS011;5071;52.360;13.134;2023-06-26T21:50:02;0.10;;;0.10;;
10063;SDS011;5071;52.360;13.134;2023-06-26T21:55:07;0.10;;;0.10;;
10063;SDS011;5071;52.360;13.134;2023-06-26T22:00:10;0.27;;;0.27;;
10063;SDS011;5071;52.360;13.134;2023-06-26T22:05:12;0.10;;;0.10;;
10063;SDS011;5071;52.360;13.134;2023-06-26T22:10:15;0.20;;;0.20;;
10063;SDS011;5071;52.360;13.134;2023-06-26T22:15:17;0.20;;;0.20;;
10063;SDS011;5071;52.360;13.134;2023-06-26T22:20:20;0.10;;;0.10;;
10063;SDS011;5071;52.360;13.134;2023-06-26T22:25:24;0.37;;;0.37;;
10063;SDS011;5071;52.360;13.134;2023-06-26T22:30:26;0.20;;;0.20;;
10063;SDS011;5071;52.360;13.134;2023-06-26T22:35:28;0.10;;;0.10;;
10063;SDS011;5071;52.360;13.134;2023-06-26T22:40:31;0.10;;;0.10;;
10063;SDS011;5071;52.360;13.134;2023-06-26T22:45:33;0.37;;;0.37;;
10063;SDS011;5071;52.360;13.134;2023-06-26T22:50:35;0.10;;;0.10;;
10063;SDS011;5071;52.360;13.134;2023-06-26T22:55:39;0.10;;;0.10;;
10063;SDS011;5071;52.360;13.134;2023-06-26T23:00:41;0.10;;;0.10;;
10063;SDS011;5071;52.360;13.134;2023-06-26T23:05:43;0.10;;;0.10;;
10063;SDS011;5071;52.360;13.134;2023-06-26T23:10:48;1.40;;;0.20;;
10063;SDS011;5071;52.360;13.134;2023-06-26T23:15:50;0.10;;;0.10;;
10063;SDS011;5071;52.360;13.134;2023-06-26T23:20:52;0.20;;;0.20;;
10063;SDS011;5071;52.360;13.134;2023-06-26T23:25:56;0.20;;;0.20;;
10063;SDS011;5071;52.360;13.134;2023-06-26T23:30:59;0.40;;;0.40;;
10063;SDS011;5071;52.360;13.134;2023-06-26T23:36:01;0.10;;;0.10;;
10063;SDS011;5071;52.360;13.134;2023-06-26T23:41:05;0.43;;;0.43;;
10063;SDS011;5071;52.360;13.134;2023-06-26T23:46:07;0.10;;;0.10;;
10063;SDS011;5071;52.360;13.134;2023-06-26T23:51:09;0.17;;;0.17;;
10063;SDS011;5071;52.360;13.134;2023-06-26T23:56:12;1.13;;;0.40;;
